createdAt,value
2023-02-14T00:01:47.234Z,14.00
2023-02-14T00:04:20.398Z,15.05
2023-02-14T00:06:51.819Z,13.00
2023-02-14T00:09:21.082Z,13.95
2023-02-14T00:11:49.446Z,16.52
2023-02-14T00:14:47.134Z,13.07
2023-02-14T00:17:15.609Z,17.75
2023-02-14T00:19:45.472Z,14.07
2023-02-14T00:22:13.831Z,11.00
2023-02-14T00:24:42.104Z,14.00
2023-02-14T00:27:10.422Z,12.10
2023-02-14T00:29:39.023Z,8.85
2023-02-14T00:32:07.377Z,14.13
2023-02-14T00:34:36.639Z,15.68
2023-02-14T00:37:06.496Z,12.30
2023-02-14T00:39:34.835Z,14.15
2023-02-14T00:42:03.269Z,11.20
2023-02-14T00:44:31.579Z,11.38
2023-02-14T00:46:59.875Z,14.15
2023-02-14T00:49:28.134Z,16.25
2023-02-14T00:51:56.544Z,20.30
2023-02-14T00:54:26.369Z,15.85
2023-02-14T00:56:54.716Z,21.83
2023-02-14T00:59:23.002Z,19.58
2023-02-14T01:01:51.539Z,15.30
2023-02-14T01:04:19.904Z,11.18
2023-02-14T01:06:48.491Z,16.52
2023-02-14T01:09:16.905Z,27.38
2023-02-14T01:11:46.918Z,16.38
2023-02-14T01:14:16.472Z,21.75
2023-02-14T01:16:45.218Z,14.85
2023-02-14T01:19:14.276Z,19.42
2023-02-14T01:21:45.357Z,14.27
2023-02-14T01:24:14.315Z,16.95
2023-02-14T01:26:45.995Z,17.98
2023-02-14T01:29:17.163Z,15.65
2023-02-14T01:31:48.475Z,15.95
2023-02-14T01:34:16.769Z,16.83
2023-02-14T01:36:47.851Z,14.60
2023-02-14T01:39:17.767Z,16.60
2023-02-14T01:41:49.167Z,16.00
2023-02-14T01:44:55.182Z,16.27
2023-02-14T01:47:23.982Z,20.05
2023-02-14T01:49:56.302Z,16.75
2023-02-14T01:52:28.653Z,22.05
2023-02-14T01:55:01.729Z,17.73
2023-02-14T01:57:37.744Z,15.60
2023-02-14T02:00:26.600Z,18.42
2023-02-14T02:02:56.617Z,17.20
2023-02-14T02:05:25.157Z,20.40
2023-02-14T02:07:56.470Z,22.20
2023-02-14T02:10:26.899Z,16.50
2023-02-14T02:12:56.975Z,18.10
2023-02-14T02:15:28.592Z,19.33
2023-02-14T02:18:06.948Z,25.85
2023-02-14T02:21:08.369Z,18.23
2023-02-14T02:24:03.877Z,18.85
2023-02-14T02:27:06.378Z,18.73
2023-02-14T02:30:17.471Z,20.55
2023-02-14T02:33:26.398Z,22.83
2023-02-14T02:36:09.269Z,22.10
2023-02-14T02:38:55.686Z,22.67
2023-02-14T02:41:30.932Z,21.08
2023-02-14T02:44:10.711Z,20.05
2023-02-14T02:46:51.143Z,21.90
2023-02-14T02:49:50.496Z,22.55
2023-02-14T02:52:44.486Z,18.55
2023-02-14T02:55:18.910Z,21.48
2023-02-14T02:57:49.830Z,24.40
2023-02-14T03:00:20.217Z,19.25
2023-02-14T03:03:08.843Z,25.52
2023-02-14T03:05:38.578Z,22.02
2023-02-14T03:08:08.675Z,18.88
2023-02-14T03:10:40.708Z,23.05
2023-02-14T03:13:38.111Z,19.70
2023-02-14T03:16:35.632Z,26.42
2023-02-14T03:19:22.668Z,21.52
2023-02-14T03:21:56.795Z,22.23
2023-02-14T03:24:37.370Z,21.50
2023-02-14T03:27:15.853Z,21.70
2023-02-14T03:29:56.903Z,22.30
2023-02-14T03:32:32.605Z,24.52
2023-02-14T03:35:08.770Z,20.70
2023-02-14T03:37:43.419Z,20.55
2023-02-14T03:40:18.907Z,27.02
2023-02-14T03:42:52.521Z,33.20
2023-02-14T03:45:28.881Z,19.25
2023-02-14T03:48:01.281Z,22.88
2023-02-14T03:50:30.697Z,27.35
2023-02-14T03:53:01.041Z,27.90
2023-02-14T03:55:36.975Z,22.85
2023-02-14T03:58:10.076Z,31.00
2023-02-14T04:00:42.917Z,28.38
2023-02-14T04:03:14.878Z,22.65
2023-02-14T04:05:46.812Z,23.88
2023-02-14T04:08:22.348Z,29.83
2023-02-14T04:10:52.724Z,24.50
2023-02-14T04:13:21.371Z,26.77
2023-02-14T04:15:49.790Z,22.67
2023-02-14T04:18:35.251Z,23.35
2023-02-14T04:21:03.499Z,23.27
2023-02-14T04:23:31.726Z,29.70
2023-02-14T04:26:03.752Z,22.15
2023-02-14T04:28:32.138Z,26.58
2023-02-14T04:31:03.800Z,20.40
2023-02-14T04:33:32.572Z,30.70
2023-02-14T04:36:01.328Z,25.48
2023-02-14T04:38:30.059Z,24.60
2023-02-14T04:40:58.604Z,20.45
2023-02-14T04:43:28.693Z,21.00
2023-02-14T04:45:56.975Z,22.75
2023-02-14T04:48:25.215Z,21.25
2023-02-14T04:50:54.394Z,23.10
2023-02-14T04:53:23.272Z,22.17
2023-02-14T04:55:51.549Z,28.05
2023-02-14T04:58:20.069Z,30.83
2023-02-14T05:00:49.838Z,25.13
2023-02-14T05:03:18.093Z,31.05
2023-02-14T05:05:46.310Z,25.85
2023-02-14T05:08:15.021Z,30.27
2023-02-14T05:10:43.340Z,22.15
2023-02-14T05:13:11.638Z,31.40
2023-02-14T05:15:39.935Z,28.20
2023-02-14T05:18:09.928Z,33.70
2023-02-14T05:20:38.272Z,23.25
2023-02-14T05:23:13.509Z,26.27
2023-02-14T05:25:42.135Z,27.42
2023-02-14T05:28:11.067Z,24.88
2023-02-14T05:30:39.836Z,26.35
2023-02-14T05:33:09.848Z,24.40
2023-02-14T05:35:38.304Z,27.63
2023-02-14T05:38:06.641Z,24.83
2023-02-14T05:40:35.009Z,22.05
2023-02-14T05:43:03.379Z,29.33
2023-02-14T05:45:31.673Z,26.42
2023-02-14T05:48:00.084Z,23.33
2023-02-14T05:50:29.767Z,30.85
2023-02-14T05:52:59.102Z,20.77
2023-02-14T05:55:27.421Z,31.85
2023-02-14T05:57:55.766Z,30.80
2023-02-14T06:00:25.164Z,25.88
2023-02-14T06:02:53.462Z,34.72
2023-02-14T06:05:21.770Z,28.33
2023-02-14T06:07:51.825Z,24.17
2023-02-14T06:10:21.818Z,29.80
2023-02-14T06:12:51.597Z,32.70
2023-02-14T06:15:20.747Z,28.08
2023-02-14T06:17:52.877Z,22.15
2023-02-14T06:20:22.042Z,29.80
2023-02-14T06:22:51.934Z,29.23
2023-02-14T06:25:20.664Z,28.67
2023-02-14T06:27:49.527Z,26.30
2023-02-14T06:30:19.099Z,27.50
2023-02-14T06:32:47.431Z,23.83
2023-02-14T06:35:15.984Z,21.52
2023-02-14T06:37:45.350Z,32.55
2023-02-14T06:40:15.862Z,31.10
2023-02-14T06:42:44.490Z,30.20
2023-02-14T06:45:12.886Z,29.73
2023-02-14T06:47:41.294Z,25.70
2023-02-14T06:50:12.705Z,26.27
2023-02-14T06:52:42.218Z,29.52
2023-02-14T06:55:12.235Z,25.05
2023-02-14T06:57:41.970Z,23.38
2023-02-14T07:00:11.591Z,29.40
2023-02-14T07:02:39.961Z,29.63
2023-02-14T07:05:08.737Z,27.65
2023-02-14T07:07:37.013Z,29.42
2023-02-14T07:10:05.727Z,27.95
2023-02-14T07:12:34.945Z,27.60
2023-02-14T07:15:04.984Z,28.33
2023-02-14T07:17:33.465Z,28.20
2023-02-14T07:20:02.229Z,33.45
2023-02-14T07:22:30.587Z,33.70
2023-02-14T07:24:58.896Z,25.80
2023-02-14T07:27:27.567Z,24.25
2023-02-14T07:29:55.991Z,33.35
2023-02-14T07:32:26.431Z,24.33
2023-02-14T07:34:54.821Z,26.08
2023-02-14T07:37:23.171Z,28.60
2023-02-14T07:39:51.545Z,28.70
2023-02-14T07:42:19.850Z,26.20
2023-02-14T07:44:48.104Z,29.15
2023-02-14T07:47:16.458Z,28.38
2023-02-14T07:49:46.299Z,28.00
2023-02-14T07:52:14.689Z,27.52
2023-02-14T07:54:43.084Z,28.55
2023-02-14T07:57:11.424Z,26.15
2023-02-14T07:59:39.775Z,30.23
2023-02-14T08:02:08.393Z,32.55
2023-02-14T08:04:38.132Z,29.65
2023-02-14T08:07:07.997Z,30.65
2023-02-14T08:09:36.344Z,37.45
2023-02-14T08:12:21.884Z,31.42
2023-02-14T08:14:50.349Z,33.10
2023-02-14T08:17:18.736Z,26.40
2023-02-14T08:19:47.179Z,28.23
2023-02-14T08:22:18.294Z,31.30
2023-02-14T08:24:47.465Z,26.98
2023-02-14T08:27:15.801Z,30.73
2023-02-14T08:29:44.382Z,28.02
2023-02-14T08:32:21.040Z,25.88
2023-02-14T08:34:49.345Z,26.10
2023-02-14T08:37:19.090Z,24.23
2023-02-14T08:39:47.439Z,27.30
2023-02-14T08:42:15.944Z,27.48
2023-02-14T08:44:44.222Z,30.48
2023-02-14T08:47:13.195Z,27.35
2023-02-14T08:49:41.442Z,29.27
2023-02-14T08:52:09.775Z,32.88
2023-02-14T08:54:39.741Z,34.53
2023-02-14T08:57:08.062Z,41.35
2023-02-14T08:59:36.436Z,26.75
2023-02-14T09:02:04.861Z,39.90
2023-02-14T09:04:35.487Z,27.45
2023-02-14T09:07:04.711Z,38.88
2023-02-14T09:09:33.166Z,34.08
2023-02-14T09:12:07.093Z,30.88
2023-02-14T09:14:37.187Z,28.65
2023-02-14T09:17:06.456Z,26.85
2023-02-14T09:19:37.696Z,31.83
2023-02-14T09:22:07.904Z,37.45
2023-02-14T09:24:41.086Z,30.83
2023-02-14T09:27:10.884Z,30.17
2023-02-14T09:29:39.141Z,29.13
2023-02-14T09:32:07.573Z,31.63
2023-02-14T09:34:36.926Z,32.22
2023-02-14T09:37:06.349Z,37.58
2023-02-14T09:39:34.820Z,30.58
2023-02-14T09:42:16.527Z,32.03
2023-02-14T09:44:51.440Z,33.97
2023-02-14T09:47:25.086Z,36.97
2023-02-14T09:49:54.577Z,31.05
2023-02-14T09:52:27.548Z,32.25
2023-02-14T09:54:58.976Z,31.13
2023-02-14T09:57:37.599Z,33.65
2023-02-14T10:00:18.287Z,32.00
2023-02-14T10:02:58.816Z,30.70
2023-02-14T10:05:29.597Z,35.60
2023-02-14T10:08:03.596Z,36.33
2023-02-14T10:10:39.672Z,30.60
2023-02-14T10:13:17.207Z,31.30
2023-02-14T10:15:48.262Z,29.00
2023-02-14T10:18:21.651Z,29.33
2023-02-14T10:20:54.163Z,30.85
2023-02-14T10:23:30.564Z,36.47
2023-02-14T10:26:02.916Z,33.10
2023-02-14T10:28:38.684Z,32.97
2023-02-14T10:31:21.822Z,34.72
2023-02-14T10:33:57.848Z,33.58
2023-02-14T10:36:54.356Z,32.22
2023-02-14T10:39:44.557Z,28.02
2023-02-14T10:42:24.494Z,33.50
2023-02-14T10:45:02.041Z,33.47
2023-02-14T10:47:41.817Z,34.50
2023-02-14T10:50:20.185Z,33.58
2023-02-14T10:53:01.112Z,31.08
2023-02-14T10:55:40.864Z,30.73
2023-02-14T10:58:13.828Z,31.15
2023-02-14T11:00:56.289Z,30.45
2023-02-14T11:03:25.622Z,32.53
2023-02-14T11:05:53.944Z,32.83
2023-02-14T11:08:27.149Z,35.28
2023-02-14T11:11:02.083Z,27.25
2023-02-14T11:13:36.648Z,32.95
2023-02-14T11:16:10.026Z,39.90
2023-02-14T11:18:40.063Z,34.10
2023-02-14T11:21:11.417Z,26.60
2023-02-14T11:23:42.585Z,30.83
2023-02-14T11:26:18.570Z,34.85
2023-02-14T11:29:01.430Z,28.55
2023-02-14T11:31:34.892Z,31.35
2023-02-14T11:34:06.349Z,26.48
2023-02-14T11:36:43.183Z,31.10
2023-02-14T11:39:24.523Z,29.05
2023-02-14T11:41:54.279Z,29.50
2023-02-14T11:44:25.266Z,36.63
2023-02-14T11:46:56.965Z,30.88
2023-02-14T11:49:32.159Z,30.77
2023-02-14T11:52:10.414Z,30.90
2023-02-14T11:54:41.466Z,28.70
2023-02-14T11:57:14.914Z,27.70
2023-02-14T11:59:45.362Z,29.63
2023-02-14T12:02:28.140Z,33.55
2023-02-14T12:05:00.105Z,36.80
2023-02-14T12:07:31.949Z,29.88
2023-02-14T12:10:16.915Z,31.55
2023-02-14T12:12:55.286Z,33.42
2023-02-14T12:15:29.148Z,29.92
2023-02-14T12:18:17.072Z,29.73
2023-02-14T12:20:50.482Z,31.65
2023-02-14T12:23:22.963Z,33.45
2023-02-14T12:25:55.667Z,31.55
2023-02-14T12:28:31.525Z,29.75
2023-02-14T12:31:00.584Z,38.08
2023-02-14T12:33:30.931Z,25.48
2023-02-14T12:36:06.968Z,33.13
2023-02-14T12:38:43.980Z,28.83
2023-02-14T12:41:26.451Z,24.98
2023-02-14T12:43:56.297Z,29.30
2023-02-14T12:47:03.860Z,34.72
2023-02-14T12:50:19.308Z,30.02
2023-02-14T12:53:25.859Z,30.10
2023-02-14T12:56:02.263Z,25.85
2023-02-14T12:58:43.409Z,30.55
2023-02-14T13:01:39.006Z,38.92
2023-02-14T13:04:35.462Z,27.73
2023-02-14T13:07:12.907Z,27.85
2023-02-14T13:09:48.497Z,25.50
2023-02-14T13:12:29.252Z,24.40
2023-02-14T13:15:16.568Z,34.83
2023-02-14T13:17:48.762Z,23.50
2023-02-14T13:20:45.890Z,26.23
2023-02-14T13:23:21.806Z,26.70
2023-02-14T13:25:55.593Z,23.83
2023-02-14T13:28:24.606Z,28.67
2023-02-14T13:30:53.271Z,27.42
2023-02-14T13:33:39.858Z,25.35
2023-02-14T13:36:11.916Z,24.85
2023-02-14T13:38:45.277Z,25.38
2023-02-14T13:41:15.660Z,28.88
2023-02-14T13:43:50.320Z,30.63
2023-02-14T13:46:21.097Z,27.27
2023-02-14T13:49:01.912Z,27.73
2023-02-14T13:51:54.833Z,26.45
2023-02-14T13:54:45.873Z,25.63
2023-02-14T13:57:34.227Z,27.38
2023-02-14T14:00:40.167Z,24.70
2023-02-14T14:03:13.674Z,24.65
2023-02-14T14:06:01.733Z,31.23
2023-02-14T14:08:50.493Z,25.55
2023-02-14T14:11:59.814Z,28.00
2023-02-14T14:14:39.700Z,28.10
2023-02-14T14:17:27.704Z,24.75
2023-02-14T14:19:57.977Z,25.35
2023-02-14T14:22:27.389Z,28.92
2023-02-14T14:24:58.260Z,21.73
2023-02-14T14:27:30.484Z,22.95
2023-02-14T14:30:04.142Z,24.70
2023-02-14T14:32:34.343Z,24.92
2023-02-14T14:35:06.308Z,23.95
2023-02-14T14:37:37.497Z,24.33
2023-02-14T14:40:08.260Z,27.42
2023-02-14T14:42:38.992Z,33.40
2023-02-14T14:45:21.884Z,25.00
2023-02-14T14:47:53.925Z,22.58
2023-02-14T14:50:25.126Z,26.30
2023-02-14T14:52:56.399Z,25.00
2023-02-14T14:55:27.653Z,31.15
2023-02-14T14:57:58.312Z,30.35
2023-02-14T15:00:30.361Z,22.25
2023-02-14T15:03:04.922Z,25.73
2023-02-14T15:05:36.397Z,27.20
2023-02-14T15:08:22.734Z,29.63
2023-02-14T15:10:57.292Z,23.80
2023-02-14T15:13:53.736Z,27.20
2023-02-14T15:16:27.586Z,31.63
2023-02-14T15:19:00.355Z,28.30
2023-02-14T15:21:30.726Z,21.33
2023-02-14T15:23:59.462Z,25.92
2023-02-14T15:26:31.580Z,27.10
2023-02-14T15:29:01.924Z,30.83
2023-02-14T15:31:35.856Z,22.15
2023-02-14T15:34:05.136Z,25.73
2023-02-14T15:36:34.936Z,26.58
2023-02-14T15:39:09.603Z,22.58
2023-02-14T15:41:43.367Z,25.92
2023-02-14T15:44:22.148Z,21.92
2023-02-14T15:46:57.817Z,30.00
2023-02-14T15:49:34.103Z,22.45
2023-02-14T15:52:04.828Z,27.13
2023-02-14T15:54:38.532Z,33.22
2023-02-14T15:57:16.796Z,30.70
2023-02-14T15:59:45.432Z,27.00
2023-02-14T16:02:27.853Z,29.13
2023-02-14T16:04:56.678Z,29.00
2023-02-14T16:07:26.960Z,29.30
2023-02-14T16:10:21.990Z,32.13
2023-02-14T16:12:59.082Z,27.05
2023-02-14T16:15:28.687Z,27.13
2023-02-14T16:17:58.529Z,31.75
2023-02-14T16:20:39.852Z,32.97
2023-02-14T16:23:23.340Z,33.00
2023-02-14T16:25:52.413Z,29.83
2023-02-14T16:28:21.317Z,31.90
2023-02-14T16:30:55.708Z,28.80
2023-02-14T16:33:27.662Z,38.33
2023-02-14T16:35:57.420Z,29.83
2023-02-14T16:38:25.705Z,39.67
2023-02-14T16:40:55.611Z,32.25
2023-02-14T16:43:23.857Z,29.77
2023-02-14T16:45:52.453Z,32.22
2023-02-14T16:48:20.733Z,30.40
2023-02-14T16:50:50.612Z,35.20
2023-02-14T16:53:28.370Z,32.80
2023-02-14T16:55:58.209Z,31.67
2023-02-14T16:58:32.878Z,45.15
2023-02-14T17:01:01.479Z,30.58
2023-02-14T17:03:30.054Z,37.63
2023-02-14T17:06:01.787Z,37.70
2023-02-14T17:08:30.965Z,39.65
2023-02-14T17:11:02.039Z,42.75
2023-02-14T17:13:34.985Z,39.65
2023-02-14T17:16:04.610Z,39.45
2023-02-14T17:18:35.081Z,40.03
2023-02-14T17:21:05.917Z,43.50
2023-02-14T17:23:34.221Z,42.88
2023-02-14T17:26:02.678Z,58.17
2023-02-14T17:28:31.057Z,41.33
2023-02-14T17:31:00.776Z,38.15
2023-02-14T17:33:30.510Z,42.40
2023-02-14T17:36:06.756Z,42.15
2023-02-14T17:38:36.030Z,43.88
2023-02-14T17:41:16.473Z,39.17
2023-02-14T17:43:44.846Z,38.45
2023-02-14T17:46:14.551Z,42.58
2023-02-14T17:48:45.478Z,41.85
2023-02-14T17:51:16.972Z,43.47
2023-02-14T17:53:46.057Z,46.90
2023-02-14T17:56:17.934Z,47.45
2023-02-14T17:58:47.855Z,45.95
2023-02-14T18:01:18.489Z,40.90
2023-02-14T18:03:46.820Z,42.20
2023-02-14T18:06:16.881Z,43.53
2023-02-14T18:08:49.305Z,46.38
2023-02-14T18:11:19.751Z,37.95
2023-02-14T18:13:48.517Z,39.55
2023-02-14T18:16:19.223Z,35.70
2023-02-14T18:18:47.724Z,40.42
2023-02-14T18:21:21.014Z,42.25
2023-02-14T18:23:49.837Z,35.15
2023-02-14T18:26:19.565Z,33.63
2023-02-14T18:28:49.196Z,37.88
2023-02-14T18:31:18.691Z,33.90
2023-02-14T18:33:49.217Z,32.78
2023-02-14T18:36:21.361Z,33.67
2023-02-14T18:38:50.301Z,30.73
2023-02-14T18:41:20.477Z,43.85
2023-02-14T18:43:49.384Z,37.60
2023-02-14T18:46:20.822Z,36.38
2023-02-14T18:48:49.355Z,33.75
2023-02-14T18:51:21.436Z,43.30
2023-02-14T18:53:52.272Z,41.50
2023-02-14T18:56:22.897Z,46.00
2023-02-14T18:58:55.092Z,47.97
2023-02-14T19:01:26.283Z,51.90
2023-02-14T19:03:54.905Z,50.05
2023-02-14T19:06:24.649Z,53.05
2023-02-14T19:08:53.003Z,50.67
2023-02-14T19:11:23.366Z,49.63
2023-02-14T19:13:53.486Z,40.95
2023-02-14T19:16:24.066Z,40.58
2023-02-14T19:18:53.376Z,38.25
2023-02-14T19:21:24.614Z,49.15
2023-02-14T19:23:56.154Z,50.90
2023-02-14T19:26:26.180Z,44.22
2023-02-14T19:28:57.824Z,42.33
2023-02-14T19:31:26.970Z,52.13
2023-02-14T19:33:55.711Z,59.85
2023-02-14T19:36:25.769Z,56.92
2023-02-14T19:38:57.585Z,59.20
2023-02-14T19:41:30.245Z,57.17
2023-02-14T19:44:00.616Z,55.83
2023-02-14T19:46:29.893Z,54.38
2023-02-14T19:48:58.964Z,57.70
2023-02-14T19:51:30.811Z,59.13
2023-02-14T19:54:00.422Z,69.60
2023-02-14T19:56:31.291Z,58.05
2023-02-14T19:58:59.946Z,60.70
2023-02-14T20:01:31.986Z,50.72
2023-02-14T20:04:00.623Z,52.53
2023-02-14T20:06:30.360Z,47.63
2023-02-14T20:08:58.790Z,46.30
2023-02-14T20:11:32.144Z,54.40
2023-02-14T20:14:01.296Z,55.20
2023-02-14T20:16:31.289Z,51.50
2023-02-14T20:19:01.742Z,51.85
2023-02-14T20:21:31.436Z,50.03
2023-02-14T20:24:00.927Z,53.90
2023-02-14T20:26:29.958Z,49.67
2023-02-14T20:29:00.237Z,56.20
2023-02-14T20:31:28.640Z,53.83
2023-02-14T20:33:57.625Z,49.92
2023-02-14T20:36:27.071Z,56.55
2023-02-14T20:38:57.725Z,52.72
2023-02-14T20:41:27.670Z,58.45
2023-02-14T20:43:56.614Z,59.97
2023-02-14T20:46:25.009Z,59.20
2023-02-14T20:48:54.312Z,54.83
2023-02-14T20:51:23.137Z,59.45
2023-02-14T20:53:51.360Z,64.15
2023-02-14T20:56:22.835Z,63.03
2023-02-14T20:58:51.232Z,56.85
2023-02-14T21:01:21.605Z,54.30
2023-02-14T21:03:52.832Z,52.38
2023-02-14T21:06:23.090Z,59.08
2023-02-14T21:08:51.441Z,59.30
2023-02-14T21:11:24.187Z,58.53
2023-02-14T21:13:55.242Z,66.60
2023-02-14T21:16:23.680Z,60.58
2023-02-14T21:18:59.016Z,63.70
2023-02-14T21:21:32.660Z,53.67
2023-02-14T21:24:02.260Z,53.90
2023-02-14T21:26:32.032Z,58.58
2023-02-14T21:29:00.403Z,43.83
2023-02-14T21:31:28.848Z,42.35
2023-02-14T21:34:00.914Z,42.00
2023-02-14T21:36:30.791Z,42.78
2023-02-14T21:39:00.502Z,50.75
2023-02-14T21:41:31.965Z,49.45
2023-02-14T21:44:01.756Z,50.55
2023-02-14T21:46:32.169Z,55.22
2023-02-14T21:49:18.670Z,47.05
2023-02-14T21:51:47.764Z,44.53
2023-02-14T21:54:16.761Z,49.85
2023-02-14T21:56:46.609Z,46.08
2023-02-14T21:59:15.357Z,52.15
2023-02-14T22:01:43.985Z,45.95
2023-02-14T22:04:13.685Z,51.75
2023-02-14T22:06:44.044Z,54.80
2023-02-14T22:09:14.948Z,56.50
2023-02-14T22:11:43.322Z,64.35
2023-02-14T22:14:14.639Z,60.20
2023-02-14T22:16:43.287Z,53.03
2023-02-14T22:19:14.867Z,56.53
2023-02-14T22:21:44.060Z,61.83
2023-02-14T22:24:12.690Z,71.22
2023-02-14T22:26:41.780Z,71.13
2023-02-14T22:29:13.468Z,63.88
2023-02-14T22:31:43.905Z,62.92
2023-02-14T22:34:14.403Z,67.32
2023-02-14T22:36:42.971Z,69.00
2023-02-14T22:39:13.693Z,67.45
2023-02-14T22:41:42.090Z,66.43
2023-02-14T22:44:13.272Z,62.95
2023-02-14T22:46:41.982Z,53.10
2023-02-14T22:49:10.396Z,49.75
2023-02-14T22:51:40.255Z,63.08
2023-02-14T22:54:12.358Z,72.88
2023-02-14T22:56:43.045Z,69.40
2023-02-14T22:59:19.788Z,66.47
2023-02-14T23:01:48.541Z,64.88
2023-02-14T23:04:17.867Z,74.50
2023-02-14T23:06:46.480Z,54.53
2023-02-14T23:09:15.827Z,72.57
2023-02-14T23:11:45.760Z,65.97
2023-02-14T23:14:34.673Z,73.28
2023-02-14T23:17:20.248Z,64.28
2023-02-14T23:20:14.551Z,71.72
2023-02-14T23:22:42.865Z,64.35
2023-02-14T23:25:12.784Z,68.22
2023-02-14T23:27:44.482Z,70.50
2023-02-14T23:30:17.235Z,69.55
2023-02-14T23:32:46.051Z,60.03
2023-02-14T23:35:14.455Z,67.90
2023-02-14T23:37:42.919Z,61.40
2023-02-14T23:40:12.151Z,63.70
2023-02-14T23:42:40.472Z,73.70
2023-02-14T23:45:26.816Z,67.03
2023-02-14T23:47:56.646Z,64.15
2023-02-14T23:50:24.931Z,69.82
2023-02-14T23:52:54.453Z,75.75
2023-02-14T23:55:22.919Z,66.32
2023-02-14T23:57:51.195Z,72.53
